Disney Magic — C6PT7 — position and weather

sailwx.info

Track history (hours):
 
Tides and Currents Weather Stations Pressure Air Temp Water Temp Dewpoint Dewpoint Depression Visibility Wind Speed Wind Dir Waves Ship Positions

Disney Magic

Last reported at 2016-Feb-08 06:00 UTC. Time now 2016-Feb-10 22:13 UTC.
Position N 26°24' W 079°06'.

Type: Passenger vessel. MMSI: 308516000.

Wind from 300 at 22 knots

Waves 2.0 meters (7 feet)

Barometer 1020.9 mb
Air temperature 15.5 ° C
Visibility: greater than 10.8 NM
Dewpoint 8.2 ° C
Water temperature 25.4 ° C

Date/timePositionNaut miles runAvg speedWind from/ knotsBaromVisibWave heightAir tempDewpointWater temp
2016-Feb-08 06:00N 26°24' W 079°06'   300 / 221020.910.8 2.015.5 8.225.4
2016-Feb-04 00:33N 27°02' W 079°51'1212.2
2016-Feb-03 23:33N 26°49' W 079°51'3511.5
2016-Feb-03 20:29N 26°14' W 079°56'1111.4
2016-Feb-03 19:33N 26°04' W 079°56'1111.3
2016-Feb-03 18:33N 25°53' W 079°59'10 9.7
2016-Feb-03 17:33N 25°46' W 080°06'4 4.1
2016-Feb-03 16:33N 25°47' W 080°10'0 0.0
2016-Feb-03 15:33N 25°47' W 080°10'0 0.0
2016-Feb-03 14:33N 25°47' W 080°10'0 0.0
2016-Feb-03 13:33N 25°47' W 080°10'0 0.0
2016-Feb-03 12:33N 25°47' W 080°10'0 0.0
2016-Feb-03 11:33N 25°47' W 080°10'0 0.5
2016-Feb-03 10:33N 25°47' W 080°11'7 7.5
2016-Feb-03 09:33N 25°47' W 080°03'1212.0
2016-Feb-03 08:33N 25°52' W 079°51'41 1.7
2016-Feb-02 08:06N 26°12' W 079°10'917.1
2016-Feb-02 07:34N 26°05' W 079°17'1818.4
2016-Feb-02 06:33N 25°50' W 079°28'20018.9
2016-Feb-01 20:00N 23°36' W 082°12'234 6.8 040 / 31016.5 5.4 0.526.023.226.4
2016-Jan-31 09:21N 19°42' W 082°00'13767.3 090 / 211016.2 5.4 1.526.021.027.6
2016-Jan-31 09:20N 19°48' W 082°12'4120.9 090 / 201015.7 5.4 1.526.021.027.6
2016-Jan-31 07:21N 20°12' W 082°48'16914.9 070 / 211017.7 5.4 1.026.021.027.4
2016-Jan-30 20:00N 22°24' W 084°42'2120.5 050 / 141020.710.8 0.526.115.126.6
2016-Jan-30 19:00N 22°36' W 084°24'30216.4 040 / 151021.510.8 0.526.115.126.4
2016-Jan-30 00:33N 25°26' W 079°50'1414.0
2016-Jan-29 23:34N 25°39' W 079°55'1313.0
2016-Jan-29 22:34N 25°46' W 080°07'3 3.1
2016-Jan-29 21:32N 25°47' W 080°10'0 0.0
2016-Jan-29 20:32N 25°47' W 080°10'0 0.0
2016-Jan-29 19:32N 25°47' W 080°10'0 0.0
2016-Jan-29 18:32N 25°47' W 080°10'0 0.0
2016-Jan-29 17:29N 25°47' W 080°10'0 0.0
2016-Jan-29 16:32N 25°47' W 080°10'0 0.0
2016-Jan-29 15:32N 25°47' W 080°10'0 0.0
2016-Jan-29 14:32N 25°47' W 080°10'0 0.0
2016-Jan-29 13:32N 25°47' W 080°10'0 0.0
2016-Jan-29 12:32N 25°47' W 080°10'0 0.0
2016-Jan-29 11:32N 25°47' W 080°10'0 0.4
2016-Jan-29 10:34N 25°47' W 080°11'7 7.2
2016-Jan-29 09:33N 25°47' W 080°03'1414.2
2016-Jan-29 08:34N 25°55' W 079°50'1615.8
2016-Jan-29 07:33N 26°01' W 079°34'1616.0
2016-Jan-29 06:33N 26°09' W 079°18'  
Track history (hours):
 
Tides and Currents Weather Stations Pressure Air Temp Water Temp Dewpoint Dewpoint Depression Visibility Wind Speed Wind Dir Waves Ship Positions

Disney Magic

Last reported at 2016-Feb-08 06:00 UTC. Time now 2016-Feb-10 22:13 UTC.
Position N 26°24' W 079°06'.

Type: Passenger vessel. MMSI: 308516000.

Wind from 300 at 22 knots

Waves 2.0 meters (7 feet)

Barometer 1020.9 mb
Air temperature 15.5 ° C
Visibility: greater than 10.8 NM
Dewpoint 8.2 ° C
Water temperature 25.4 ° C

Date/timePositionNaut miles runAvg speedWind from/ knotsBaromVisibWave heightAir tempDewpointWater temp
2016-Feb-08 06:00N 26°24' W 079°06'   300 / 221020.910.8 2.015.5 8.225.4
2016-Feb-04 00:33N 27°02' W 079°51'1212.2
2016-Feb-03 23:33N 26°49' W 079°51'3511.5
2016-Feb-03 20:29N 26°14' W 079°56'1111.4
2016-Feb-03 19:33N 26°04' W 079°56'1111.3
2016-Feb-03 18:33N 25°53' W 079°59'10 9.7
2016-Feb-03 17:33N 25°46' W 080°06'4 4.1
2016-Feb-03 16:33N 25°47' W 080°10'0 0.0
2016-Feb-03 15:33N 25°47' W 080°10'0 0.0
2016-Feb-03 14:33N 25°47' W 080°10'0 0.0
2016-Feb-03 13:33N 25°47' W 080°10'0 0.0
2016-Feb-03 12:33N 25°47' W 080°10'0 0.0
2016-Feb-03 11:33N 25°47' W 080°10'0 0.5
2016-Feb-03 10:33N 25°47' W 080°11'7 7.5
2016-Feb-03 09:33N 25°47' W 080°03'1212.0
2016-Feb-03 08:33N 25°52' W 079°51'41 1.7
2016-Feb-02 08:06N 26°12' W 079°10'917.1
2016-Feb-02 07:34N 26°05' W 079°17'1818.4
2016-Feb-02 06:33N 25°50' W 079°28'20018.9
2016-Feb-01 20:00N 23°36' W 082°12'234 6.8 040 / 31016.5 5.4 0.526.023.226.4
2016-Jan-31 09:21N 19°42' W 082°00'13767.3 090 / 211016.2 5.4 1.526.021.027.6
2016-Jan-31 09:20N 19°48' W 082°12'4120.9 090 / 201015.7 5.4 1.526.021.027.6
2016-Jan-31 07:21N 20°12' W 082°48'16914.9 070 / 211017.7 5.4 1.026.021.027.4
2016-Jan-30 20:00N 22°24' W 084°42'2120.5 050 / 141020.710.8 0.526.115.126.6
2016-Jan-30 19:00N 22°36' W 084°24'30216.4 040 / 151021.510.8 0.526.115.126.4
2016-Jan-30 00:33N 25°26' W 079°50'1414.0
2016-Jan-29 23:34N 25°39' W 079°55'1313.0
2016-Jan-29 22:34N 25°46' W 080°07'3 3.1
2016-Jan-29 21:32N 25°47' W 080°10'0 0.0
2016-Jan-29 20:32N 25°47' W 080°10'0 0.0
2016-Jan-29 19:32N 25°47' W 080°10'0 0.0
2016-Jan-29 18:32N 25°47' W 080°10'0 0.0
2016-Jan-29 17:29N 25°47' W 080°10'0 0.0
2016-Jan-29 16:32N 25°47' W 080°10'0 0.0
2016-Jan-29 15:32N 25°47' W 080°10'0 0.0
2016-Jan-29 14:32N 25°47' W 080°10'0 0.0
2016-Jan-29 13:32N 25°47' W 080°10'0 0.0
2016-Jan-29 12:32N 25°47' W 080°10'0 0.0
2016-Jan-29 11:32N 25°47' W 080°10'0 0.4
2016-Jan-29 10:34N 25°47' W 080°11'7 7.2
2016-Jan-29 09:33N 25°47' W 080°03'1414.2
2016-Jan-29 08:34N 25°55' W 079°50'1615.8
2016-Jan-29 07:33N 26°01' W 079°34'1616.0
2016-Jan-29 06:33N 26°09' W 079°18'  

Dump ship's entire track history